Sumisemaru No.5 — JE3162 — position and weather

sailwx.info

Track history (hours):
 
Tides and Currents Weather Stations Pressure Air Temp Water Temp Dewpoint Dewpoint Depression Visibility Wind Speed Wind Dir Waves Ship Positions

Sumisemaru No.5

Last reported at 2015-Feb-28 09:31 UTC. Time now 2015-Mar-03 15:06 UTC.
Position N 34°05' E 134°59'.

Length 96 m; draft 6.8 m.

Type: Cargo ship. MMSI: 431700423.

Date/timePositionNaut miles runAvg speedWind from/ knotsBaromVisibWave heightAir tempDewpointWater temp
2015-Feb-28 09:31N 34°05' E 134°59'2712.5
2015-Feb-28 07:23N 34°32' E 135°02'6 7.6
2015-Feb-28 06:33N 34°36' E 134°56'6 0.2
2015-Feb-27 02:11N 34°39' E 134°49'610.3
2015-Feb-27 01:33N 34°37' E 134°57'9 9.3
2015-Feb-27 00:33N 34°33' E 135°07'1411.7
2015-Feb-26 23:23N 34°20' E 135°01'1011.5
2015-Feb-26 22:33N 34°11' E 134°59'1411.5
2015-Feb-26 21:21N 33°57' E 134°59'  
2015-Feb-24 00:33N 35°12' E 139°46'1312.6
2015-Feb-23 23:33N 35°24' E 139°42'5 4.7
2015-Feb-23 22:33N 35°29' E 139°40'0 0.0
2015-Feb-23 21:33N 35°29' E 139°40'0 0.0
2015-Feb-23 20:33N 35°29' E 139°40'0 0.0
2015-Feb-23 19:33N 35°29' E 139°40'0 0.0
2015-Feb-23 18:33N 35°29' E 139°40'0 0.0
2015-Feb-23 17:33N 35°29' E 139°40'0 0.0
2015-Feb-23 16:33N 35°29' E 139°40'0 0.0
2015-Feb-23 15:33N 35°29' E 139°40'0 0.0
2015-Feb-23 14:33N 35°29' E 139°40'0 0.0
2015-Feb-23 13:33N 35°29' E 139°40'0 0.0
2015-Feb-23 12:33N 35°29' E 139°40'0 0.0
2015-Feb-23 11:33N 35°29' E 139°40'0 0.0
2015-Feb-23 10:33N 35°29' E 139°40'0 0.0
2015-Feb-23 09:33N 35°29' E 139°40'0 0.0
2015-Feb-23 08:33N 35°29' E 139°40'0 0.0
2015-Feb-23 07:33N 35°29' E 139°40'0 0.0
2015-Feb-23 06:33N 35°29' E 139°40'0 0.0
2015-Feb-23 05:33N 35°29' E 139°40'2 1.7
2015-Feb-23 04:33N 35°27' E 139°41'2 1.6
2015-Feb-23 03:32N 35°26' E 139°42'0 0.1
2015-Feb-23 02:32N 35°26' E 139°42'0 0.1
2015-Feb-23 01:32N 35°26' E 139°42'0 0.0
2015-Feb-23 00:32N 35°26' E 139°42'0 0.0
2015-Feb-22 23:34N 35°26' E 139°42'0 0.1
2015-Feb-22 22:33N 35°26' E 139°42'0 0.1
2015-Feb-22 21:34N 35°26' E 139°42'0 0.0
2015-Feb-22 20:34N 35°26' E 139°42'0 0.0
2015-Feb-22 19:33N 35°26' E 139°42'0 0.0
2015-Feb-22 18:33N 35°26' E 139°42'0 0.0
2015-Feb-22 17:33N 35°26' E 139°42'0 0.0
2015-Feb-22 16:34N 35°26' E 139°42'0 0.0
2015-Feb-22 15:33N 35°26' E 139°42'0 0.0
2015-Feb-22 14:33N 35°26' E 139°42'0 0.0
2015-Feb-22 13:33N 35°26' E 139°42'0 0.1
2015-Feb-22 12:33N 35°26' E 139°42'0 0.0
2015-Feb-22 11:33N 35°26' E 139°42'0 0.0
2015-Feb-22 10:33N 35°26' E 139°42'0 0.0
2015-Feb-22 09:33N 35°26' E 139°42'0 0.1
2015-Feb-22 08:33N 35°26' E 139°42'0 0.0
2015-Feb-22 07:30N 35°26' E 139°42'0 0.1
2015-Feb-22 06:33N 35°26' E 139°42'0 0.1
2015-Feb-22 05:33N 35°26' E 139°42'7 6.6
2015-Feb-22 04:33N 35°19' E 139°43'1210.9
2015-Feb-22 03:27N 35°07' E 139°45'22 6.8
2015-Feb-22 00:17N 34°57' E 140°09'  
Track history (hours):
 
Tides and Currents Weather Stations Pressure Air Temp Water Temp Dewpoint Dewpoint Depression Visibility Wind Speed Wind Dir Waves Ship Positions

Sumisemaru No.5

Last reported at 2015-Feb-28 09:31 UTC. Time now 2015-Mar-03 15:06 UTC.
Position N 34°05' E 134°59'.

Length 96 m; draft 6.8 m.

Type: Cargo ship. MMSI: 431700423.

Date/timePositionNaut miles runAvg speedWind from/ knotsBaromVisibWave heightAir tempDewpointWater temp
2015-Feb-28 09:31N 34°05' E 134°59'2712.5
2015-Feb-28 07:23N 34°32' E 135°02'6 7.6
2015-Feb-28 06:33N 34°36' E 134°56'6 0.2
2015-Feb-27 02:11N 34°39' E 134°49'610.3
2015-Feb-27 01:33N 34°37' E 134°57'9 9.3
2015-Feb-27 00:33N 34°33' E 135°07'1411.7
2015-Feb-26 23:23N 34°20' E 135°01'1011.5
2015-Feb-26 22:33N 34°11' E 134°59'1411.5
2015-Feb-26 21:21N 33°57' E 134°59'  
2015-Feb-24 00:33N 35°12' E 139°46'1312.6
2015-Feb-23 23:33N 35°24' E 139°42'5 4.7
2015-Feb-23 22:33N 35°29' E 139°40'0 0.0
2015-Feb-23 21:33N 35°29' E 139°40'0 0.0
2015-Feb-23 20:33N 35°29' E 139°40'0 0.0
2015-Feb-23 19:33N 35°29' E 139°40'0 0.0
2015-Feb-23 18:33N 35°29' E 139°40'0 0.0
2015-Feb-23 17:33N 35°29' E 139°40'0 0.0
2015-Feb-23 16:33N 35°29' E 139°40'0 0.0
2015-Feb-23 15:33N 35°29' E 139°40'0 0.0
2015-Feb-23 14:33N 35°29' E 139°40'0 0.0
2015-Feb-23 13:33N 35°29' E 139°40'0 0.0
2015-Feb-23 12:33N 35°29' E 139°40'0 0.0
2015-Feb-23 11:33N 35°29' E 139°40'0 0.0
2015-Feb-23 10:33N 35°29' E 139°40'0 0.0
2015-Feb-23 09:33N 35°29' E 139°40'0 0.0
2015-Feb-23 08:33N 35°29' E 139°40'0 0.0
2015-Feb-23 07:33N 35°29' E 139°40'0 0.0
2015-Feb-23 06:33N 35°29' E 139°40'0 0.0
2015-Feb-23 05:33N 35°29' E 139°40'2 1.7
2015-Feb-23 04:33N 35°27' E 139°41'2 1.6
2015-Feb-23 03:32N 35°26' E 139°42'0 0.1
2015-Feb-23 02:32N 35°26' E 139°42'0 0.1
2015-Feb-23 01:32N 35°26' E 139°42'0 0.0
2015-Feb-23 00:32N 35°26' E 139°42'0 0.0
2015-Feb-22 23:34N 35°26' E 139°42'0 0.1
2015-Feb-22 22:33N 35°26' E 139°42'0 0.1
2015-Feb-22 21:34N 35°26' E 139°42'0 0.0
2015-Feb-22 20:34N 35°26' E 139°42'0 0.0
2015-Feb-22 19:33N 35°26' E 139°42'0 0.0
2015-Feb-22 18:33N 35°26' E 139°42'0 0.0
2015-Feb-22 17:33N 35°26' E 139°42'0 0.0
2015-Feb-22 16:34N 35°26' E 139°42'0 0.0
2015-Feb-22 15:33N 35°26' E 139°42'0 0.0
2015-Feb-22 14:33N 35°26' E 139°42'0 0.0
2015-Feb-22 13:33N 35°26' E 139°42'0 0.1
2015-Feb-22 12:33N 35°26' E 139°42'0 0.0
2015-Feb-22 11:33N 35°26' E 139°42'0 0.0
2015-Feb-22 10:33N 35°26' E 139°42'0 0.0
2015-Feb-22 09:33N 35°26' E 139°42'0 0.1
2015-Feb-22 08:33N 35°26' E 139°42'0 0.0
2015-Feb-22 07:30N 35°26' E 139°42'0 0.1
2015-Feb-22 06:33N 35°26' E 139°42'0 0.1
2015-Feb-22 05:33N 35°26' E 139°42'7 6.6
2015-Feb-22 04:33N 35°19' E 139°43'1210.9
2015-Feb-22 03:27N 35°07' E 139°45'22 6.8
2015-Feb-22 00:17N 34°57' E 140°09'  

Dump ship's entire track history